Time;durP1;ratioP1;P1;durP2;ratioP2;P2;SDS_P1;SDS_P2;PMS_P1;PMS_P2;Temp;Humidity;BMP_temperature;BMP_pressure;BME280_temperature;BME280_humidity;BME280_pressure;Samples;Min_cycle;Max_cycle;Signal;HPM_P1;HPM_P2
2024/02/28 00:01:37;;;;;;;19.45;9.00;;;6.00;99.90;;;;;;5009821;28;20037;-77
2024/02/28 00:04:03;;;;;;;14.18;8.55;;;6.00;99.90;;;;;;5011284;28;20116;-78
2024/02/28 00:06:29;;;;;;;11.63;7.80;;;6.00;99.90;;;;;;5011114;28;20030;-78
2024/02/28 00:08:55;;;;;;;11.77;8.13;;;5.90;99.90;;;;;;5010123;28;20060;-78
2024/02/28 00:11:21;;;;;;;13.63;8.20;;;6.00;99.90;;;;;;5012280;28;20087;-77
2024/02/28 00:13:47;;;;;;;12.02;7.93;;;6.00;99.90;;;;;;5011031;28;20463;-77
2024/02/28 00:16:12;;;;;;;13.13;8.18;;;6.10;99.90;;;;;;5010821;28;20041;-77
2024/02/28 00:18:38;;;;;;;10.43;7.22;;;6.00;99.90;;;;;;5015040;28;20064;-77
2024/02/28 00:21:04;;;;;;;12.52;7.68;;;6.00;99.90;;;;;;5015402;28;20025;-79
2024/02/28 00:23:30;;;;;;;10.40;6.95;;;6.00;99.90;;;;;;5016232;28;20033;-79
2024/02/28 00:25:56;;;;;;;11.18;7.65;;;6.10;99.90;;;;;;5015746;28;21143;-79
2024/02/28 00:28:21;;;;;;;10.07;6.97;;;6.00;99.90;;;;;;5013775;28;20034;-79
2024/02/28 00:30:47;;;;;;;10.52;6.85;;;6.00;99.90;;;;;;5015771;28;20044;-79
2024/02/28 00:33:13;;;;;;;9.85;5.80;;;6.10;99.90;;;;;;5016186;28;20045;-79
2024/02/28 00:35:39;;;;;;;9.35;6.18;;;6.10;99.90;;;;;;5014509;28;20117;-79
2024/02/28 00:38:05;;;;;;;8.95;6.32;;;6.10;99.90;;;;;;5015675;28;20033;-79
2024/02/28 00:40:31;;;;;;;8.85;6.18;;;6.10;99.90;;;;;;5016332;28;20604;-77
2024/02/28 00:42:57;;;;;;;6.63;4.95;;;6.10;99.90;;;;;;5014984;28;21829;-79
2024/02/28 00:45:23;;;;;;;7.68;5.03;;;6.20;99.90;;;;;;5016149;28;20025;-79
2024/02/28 00:47:49;;;;;;;8.88;5.18;;;6.20;99.90;;;;;;5014110;28;20033;-79
2024/02/28 00:50:15;;;;;;;7.55;5.25;;;6.20;99.90;;;;;;5014060;28;20029;-79
2024/02/28 00:52:41;;;;;;;7.45;5.28;;;6.10;99.90;;;;;;5015519;28;20037;-79
2024/02/28 00:55:07;;;;;;;8.25;5.90;;;6.10;99.90;;;;;;5014876;28;22633;-79
2024/02/28 00:57:33;;;;;;;9.07;6.85;;;6.20;99.90;;;;;;5014152;28;20492;-79
2024/02/28 00:59:59;;;;;;;9.48;6.20;;;6.20;99.90;;;;;;5014622;28;20129;-79
2024/02/28 01:02:25;;;;;;;9.60;5.35;;;6.20;99.90;;;;;;5013547;28;20033;-79
2024/02/28 01:04:50;;;;;;;9.68;5.50;;;6.20;99.90;;;;;;5015277;28;20036;-79
2024/02/28 01:07:16;;;;;;;9.45;5.82;;;6.20;99.90;;;;;;5014519;28;20033;-79
2024/02/28 01:09:42;;;;;;;10.43;5.88;;;6.20;99.90;;;;;;5014934;28;21235;-79
2024/02/28 01:12:08;;;;;;;9.02;5.50;;;6.20;99.90;;;;;;5014716;28;20059;-79
2024/02/28 01:14:33;;;;;;;7.90;4.93;;;6.10;99.90;;;;;;5015353;28;20067;-79
2024/02/28 01:16:59;;;;;;;7.40;4.72;;;6.20;99.90;;;;;;5013176;28;20036;-76
2024/02/28 01:19:25;;;;;;;7.70;4.20;;;6.20;99.90;;;;;;5012993;28;20034;-80
2024/02/28 01:21:50;;;;;;;8.18;5.30;;;6.20;99.90;;;;;;5015477;28;20033;-79
2024/02/28 01:24:16;;;;;;;7.38;4.80;;;6.20;99.90;;;;;;5013853;28;20048;-79
2024/02/28 01:26:42;;;;;;;9.10;5.05;;;6.30;99.90;;;;;;5013575;28;20030;-79
2024/02/28 01:29:07;;;;;;;10.63;4.88;;;6.20;99.90;;;;;;5014968;28;20472;-79
2024/02/28 01:31:33;;;;;;;7.60;4.50;;;6.30;99.90;;;;;;5014210;28;20037;-79
2024/02/28 01:33:59;;;;;;;8.60;4.38;;;6.30;99.90;;;;;;5015594;28;20384;-77
2024/02/28 01:36:26;;;;;;;5.70;4.25;;;6.30;99.90;;;;;;5014008;28;20037;-79
2024/02/28 01:38:52;;;;;;;6.28;3.72;;;6.20;99.90;;;;;;5014734;28;20060;-79
2024/02/28 01:41:17;;;;;;;7.15;4.47;;;6.20;99.90;;;;;;5014618;28;20065;-76
2024/02/28 01:43:43;;;;;;;7.85;4.07;;;6.20;99.90;;;;;;5013770;28;20120;-79
2024/02/28 01:46:23;;;;;;;8.40;4.35;;;6.20;99.90;;;;;;5015713;28;20733;-79
2024/02/28 01:48:49;;;;;;;8.00;4.00;;;6.30;99.90;;;;;;5015825;28;21422;-79
2024/02/28 01:51:15;;;;;;;7.28;3.83;;;6.20;99.90;;;;;;5013228;28;20045;-79
2024/02/28 01:53:41;;;;;;;7.13;4.28;;;6.20;99.90;;;;;;5014910;28;20056;-79
2024/02/28 01:56:07;;;;;;;8.35;4.55;;;6.20;99.90;;;;;;5015399;28;20033;-79
2024/02/28 01:58:33;;;;;;;7.45;4.55;;;6.10;99.90;;;;;;5013900;28;20037;-79
2024/02/28 02:01:00;;;;;;;6.35;4.18;;;6.10;99.90;;;;;;5015141;28;20088;-79
2024/02/28 02:03:26;;;;;;;8.30;5.00;;;6.00;99.90;;;;;;5014259;28;20029;-79
2024/02/28 02:05:52;;;;;;;7.15;4.78;;;6.10;99.90;;;;;;5017428;28;20372;-80
2024/02/28 02:08:17;;;;;;;7.28;4.32;;;6.10;99.90;;;;;;5016994;28;20248;-79
2024/02/28 02:10:43;;;;;;;7.28;5.10;;;6.10;99.90;;;;;;5018279;28;20211;-79
2024/02/28 02:13:09;;;;;;;7.13;4.50;;;6.10;99.90;;;;;;5019410;28;20051;-79
2024/02/28 02:15:35;;;;;;;10.10;5.07;;;6.20;99.90;;;;;;5017124;28;20291;-79
2024/02/28 02:18:00;;;;;;;6.95;4.85;;;6.20;99.90;;;;;;5016607;28;20531;-80
2024/02/28 02:20:29;;;;;;;8.57;5.28;;;6.20;99.90;;;;;;5018542;28;20365;-79
2024/02/28 02:22:56;;;;;;;10.05;6.22;;;6.20;99.90;;;;;;5017607;28;20084;-80
2024/02/28 02:25:22;;;;;;;10.05;5.78;;;6.20;99.90;;;;;;5018057;28;20038;-80
2024/02/28 02:27:47;;;;;;;11.55;6.10;;;6.20;99.90;;;;;;5018165;28;20048;-80
2024/02/28 02:30:13;;;;;;;9.40;5.97;;;6.20;99.90;;;;;;5017095;28;20028;-80
2024/02/28 02:32:39;;;;;;;10.30;5.70;;;6.20;99.90;;;;;;5017393;28;20479;-79
2024/02/28 02:35:05;;;;;;;8.05;5.07;;;6.20;99.90;;;;;;5018159;28;20055;-79
2024/02/28 02:37:31;;;;;;;8.60;5.50;;;6.10;99.90;;;;;;5015969;28;20855;-79
2024/02/28 02:39:56;;;;;;;6.60;4.18;;;6.10;99.90;;;;;;5017114;28;20021;-79
2024/02/28 02:42:22;;;;;;;7.18;3.95;;;6.10;99.90;;;;;;5017025;28;20033;-79
2024/02/28 02:44:48;;;;;;;6.63;3.97;;;6.20;99.90;;;;;;5017879;28;20065;-79
2024/02/28 02:47:13;;;;;;;5.88;3.83;;;6.20;99.90;;;;;;5019028;28;20099;-80
2024/02/28 02:49:39;;;;;;;7.22;4.53;;;6.20;99.90;;;;;;5016994;28;20045;-78
2024/02/28 02:52:05;;;;;;;7.32;4.22;;;6.20;99.90;;;;;;5017608;28;20048;-80
2024/02/28 02:54:31;;;;;;;7.85;4.78;;;6.20;99.90;;;;;;5018570;28;20041;-80
2024/02/28 02:56:56;;;;;;;7.43;4.18;;;6.20;99.90;;;;;;5015071;28;20099;-78
2024/02/28 02:59:22;;;;;;;6.57;4.13;;;6.20;99.90;;;;;;5016677;28;20125;-80
2024/02/28 03:01:49;;;;;;;8.68;4.63;;;6.20;99.90;;;;;;5018146;28;20057;-80
2024/02/28 03:04:15;;;;;;;8.25;5.03;;;6.20;99.90;;;;;;5016089;28;20419;-80
2024/02/28 03:06:40;;;;;;;6.75;4.53;;;6.20;99.90;;;;;;5016221;28;20043;-80
2024/02/28 03:09:07;;;;;;;6.35;4.20;;;6.20;99.90;;;;;;5017247;28;20131;-80
2024/02/28 03:11:36;;;;;;;7.07;4.32;;;6.20;99.90;;;;;;5016280;28;20036;-77
2024/02/28 03:14:02;;;;;;;6.18;3.53;;;6.10;99.90;;;;;;5017309;28;20087;-77
2024/02/28 03:16:29;;;;;;;5.10;2.95;;;6.20;99.90;;;;;;5016646;28;20065;-80
2024/02/28 03:18:54;;;;;;;6.07;3.28;;;6.20;99.90;;;;;;5016015;28;20034;-77
2024/02/28 03:21:21;;;;;;;5.53;3.72;;;6.20;99.90;;;;;;5016107;28;20045;-77
2024/02/28 03:23:46;;;;;;;7.25;4.10;;;6.20;99.90;;;;;;5017692;28;20124;-77
2024/02/28 03:26:12;;;;;;;8.10;4.10;;;6.20;99.90;;;;;;5015329;28;20049;-77
2024/02/28 03:28:38;;;;;;;11.15;5.93;;;6.30;99.90;;;;;;5015605;28;20033;-77
2024/02/28 03:31:03;;;;;;;9.07;5.78;;;6.20;99.90;;;;;;5016571;28;20509;-77
2024/02/28 03:33:31;;;;;;;8.65;5.65;;;6.30;99.90;;;;;;5015426;28;20057;-77
2024/02/28 03:35:57;;;;;;;9.75;6.78;;;6.20;99.90;;;;;;5016014;28;20029;-78
2024/02/28 03:38:23;;;;;;;10.13;6.13;;;6.20;99.90;;;;;;5015897;28;20041;-78
2024/02/28 03:40:48;;;;;;;10.93;6.72;;;6.20;99.90;;;;;;5015457;28;20029;-78
2024/02/28 03:43:14;;;;;;;8.60;6.15;;;6.10;99.90;;;;;;5015881;28;20073;-77
2024/02/28 03:45:40;;;;;;;9.40;5.32;;;6.20;99.90;;;;;;5014080;28;20123;-78
2024/02/28 03:48:06;;;;;;;7.53;5.65;;;6.20;99.90;;;;;;5013321;28;20087;-78
2024/02/28 03:50:31;;;;;;;7.75;5.07;;;6.20;99.90;;;;;;5017840;28;20038;-78
2024/02/28 03:52:57;;;;;;;7.53;5.20;;;6.20;99.90;;;;;;5016182;28;20045;-77
2024/02/28 03:55:23;;;;;;;8.40;5.63;;;6.20;99.90;;;;;;5014117;28;20033;-78
2024/02/28 03:57:51;;;;;;;11.38;6.95;;;6.20;99.90;;;;;;5014656;28;20034;-78
2024/02/28 04:00:17;;;;;;;8.15;5.57;;;6.20;99.90;;;;;;5015821;28;20041;-78
2024/02/28 04:02:43;;;;;;;7.20;5.00;;;6.20;99.90;;;;;;5015376;28;20049;-77
2024/02/28 04:05:08;;;;;;;8.10;5.25;;;6.20;99.90;;;;;;5010479;28;20673;-78
2024/02/28 04:07:34;;;;;;;7.15;4.80;;;6.30;99.90;;;;;;5010896;28;20383;-78
2024/02/28 04:10:00;;;;;;;9.07;5.80;;;6.30;99.90;;;;;;5008481;28;20057;-77
2024/02/28 04:12:25;;;;;;;9.23;5.53;;;6.20;99.90;;;;;;5012077;28;20063;-78
2024/02/28 04:14:51;;;;;;;8.23;4.97;;;6.30;99.90;;;;;;5010436;28;20044;-77
2024/02/28 04:17:17;;;;;;;8.40;5.05;;;6.30;99.90;;;;;;5009122;28;20511;-77
2024/02/28 04:19:42;;;;;;;8.82;6.10;;;6.30;99.90;;;;;;5009641;28;20061;-77
2024/02/28 04:22:08;;;;;;;11.65;7.47;;;6.30;99.90;;;;;;5008006;28;20476;-77
2024/02/28 04:24:34;;;;;;;11.23;7.78;;;6.20;99.90;;;;;;5008271;28;20554;-77
2024/02/28 04:27:00;;;;;;;11.52;7.72;;;6.10;99.90;;;;;;5008771;28;20375;-77
2024/02/28 04:29:25;;;;;;;11.68;8.75;;;6.10;99.90;;;;;;5009970;28;20153;-77
2024/02/28 04:31:51;;;;;;;8.10;5.70;;;6.10;99.90;;;;;;4995694;28;20049;-78
2024/02/28 04:34:17;;;;;;;8.40;5.93;;;6.10;99.90;;;;;;5010940;28;20060;-77
2024/02/28 04:36:42;;;;;;;8.63;6.28;;;6.10;99.90;;;;;;5005838;28;20034;-78
2024/02/28 04:39:08;;;;;;;8.27;5.55;;;6.20;99.90;;;;;;5003429;28;21352;-78
2024/02/28 04:41:34;;;;;;;9.13;5.75;;;6.30;99.90;;;;;;5007508;28;20037;-78
2024/02/28 04:44:00;;;;;;;7.63;5.07;;;6.30;99.90;;;;;;5011297;28;20065;-77
2024/02/28 04:46:25;;;;;;;6.22;4.30;;;6.40;99.90;;;;;;5010524;28;25517;-79
2024/02/28 04:48:51;;;;;;;7.97;4.60;;;6.40;99.90;;;;;;5009018;28;20120;-77
2024/02/28 04:51:17;;;;;;;6.90;4.25;;;6.30;99.90;;;;;;5007354;28;20060;-79
2024/02/28 04:53:43;;;;;;;11.45;4.78;;;6.30;99.90;;;;;;5009476;28;20045;-79
2024/02/28 04:56:09;;;;;;;9.32;6.72;;;6.30;99.90;;;;;;5012018;28;20037;-77
2024/02/28 04:58:36;;;;;;;11.52;7.47;;;6.20;99.90;;;;;;5008475;28;20429;-78
2024/02/28 05:01:02;;;;;;;12.48;8.30;;;6.10;99.90;;;;;;5008492;28;20040;-77
2024/02/28 05:03:28;;;;;;;11.30;8.05;;;6.20;99.90;;;;;;5006226;28;20112;-77
2024/02/28 05:05:54;;;;;;;10.95;7.90;;;6.20;99.90;;;;;;5007108;28;20037;-77
2024/02/28 05:08:20;;;;;;;11.25;7.28;;;6.20;99.90;;;;;;5008215;28;20636;-77
2024/02/28 05:10:46;;;;;;;12.55;8.05;;;6.20;99.90;;;;;;5008030;28;20050;-77
2024/02/28 05:13:12;;;;;;;12.40;7.88;;;6.20;99.90;;;;;;5006057;28;20056;-77
2024/02/28 05:15:38;;;;;;;8.85;6.20;;;6.20;99.90;;;;;;5008621;28;20514;-77
2024/02/28 05:18:03;;;;;;;8.38;5.80;;;6.20;99.90;;;;;;5008320;28;20043;-79
2024/02/28 05:20:29;;;;;;;9.15;5.78;;;6.30;99.90;;;;;;5008724;28;20106;-79
2024/02/28 05:22:55;;;;;;;8.65;5.55;;;6.30;99.90;;;;;;5006160;28;20099;-79
2024/02/28 05:25:20;;;;;;;11.57;7.47;;;6.30;99.90;;;;;;5006577;28;20088;-79
2024/02/28 05:27:46;;;;;;;401.80;33.97;;;6.20;99.90;;;;;;5007330;28;20403;-79
2024/02/28 05:30:12;;;;;;;267.65;22.88;;;6.10;99.90;;;;;;5008147;28;20040;-79
2024/02/28 05:32:38;;;;;;;34.15;9.20;;;6.10;99.90;;;;;;5005923;28;20037;-77
2024/02/28 05:35:04;;;;;;;318.85;28.98;;;6.10;99.90;;;;;;5006962;28;21221;-79
2024/02/28 05:37:29;;;;;;;109.47;14.23;;;6.00;99.90;;;;;;5007730;28;20037;-77
2024/02/28 05:39:55;;;;;;;191.57;19.45;;;6.00;99.90;;;;;;5006312;28;20099;-77
2024/02/28 05:42:24;;;;;;;31.38;10.38;;;5.80;99.90;;;;;;5006992;28;20053;-77
2024/02/28 05:44:50;;;;;;;14.35;8.25;;;5.80;99.90;;;;;;5008051;28;20030;-77
2024/02/28 05:47:16;;;;;;;10.93;8.00;;;5.80;99.90;;;;;;5007914;28;20072;-77
2024/02/28 05:49:42;;;;;;;9.10;6.57;;;5.80;99.90;;;;;;5007909;28;20044;-78
2024/02/28 05:52:07;;;;;;;9.20;5.50;;;5.90;99.90;;;;;;5005416;28;20030;-77
2024/02/28 05:54:36;;;;;;;8.02;4.68;;;6.00;99.90;;;;;;5006859;28;20068;-77
2024/02/28 05:57:02;;;;;;;7.38;4.80;;;6.10;99.90;;;;;;5006841;28;20037;-77
2024/02/28 05:59:27;;;;;;;7.22;4.70;;;6.10;99.90;;;;;;5007648;28;21024;-77
2024/02/28 06:01:53;;;;;;;6.60;4.38;;;6.10;99.90;;;;;;5004875;28;20150;-77
2024/02/28 06:04:19;;;;;;;6.57;4.05;;;6.20;99.90;;;;;;5005643;28;20037;-77
2024/02/28 06:06:44;;;;;;;7.53;4.60;;;6.30;99.90;;;;;;5004309;28;20353;-79
2024/02/28 06:09:10;;;;;;;7.25;4.85;;;6.30;99.90;;;;;;5005761;28;20052;-79
2024/02/28 06:11:36;;;;;;;7.88;5.18;;;6.30;99.90;;;;;;5006341;28;20037;-79
2024/02/28 06:14:03;;;;;;;7.03;4.93;;;6.30;99.90;;;;;;5004874;28;20080;-79
2024/02/28 06:16:30;;;;;;;7.15;5.07;;;6.30;99.90;;;;;;5008035;28;20483;-79
2024/02/28 06:18:55;;;;;;;8.05;5.55;;;6.20;99.90;;;;;;5013939;28;20115;-79
2024/02/28 06:21:25;;;;;;;7.03;4.60;;;6.20;99.90;;;;;;5009276;28;20767;-78
2024/02/28 06:23:51;;;;;;;7.90;4.72;;;6.20;99.90;;;;;;5006275;28;20046;-78
2024/02/28 06:26:17;;;;;;;8.05;5.30;;;6.30;99.90;;;;;;5004599;28;20037;-77
2024/02/28 06:28:45;;;;;;;7.82;5.53;;;6.50;99.90;;;;;;5006596;28;20037;-78
2024/02/28 06:31:17;;;;;;;7.70;5.13;;;6.40;99.90;;;;;;5007424;28;20083;-79
2024/02/28 06:33:44;;;;;;;10.82;5.97;;;6.40;99.90;;;;;;5007064;28;20672;-79
2024/02/28 06:36:09;;;;;;;9.30;5.50;;;6.40;99.90;;;;;;5007456;28;20087;-79
2024/02/28 06:38:35;;;;;;;10.27;5.78;;;6.40;99.90;;;;;;5005059;28;20037;-79
2024/02/28 06:41:05;;;;;;;11.90;7.00;;;6.40;99.90;;;;;;5008427;28;20038;-79
2024/02/28 06:43:35;;;;;;;11.10;6.55;;;6.40;99.90;;;;;;5008004;28;20103;-78
2024/02/28 06:46:01;;;;;;;8.95;6.15;;;6.40;99.90;;;;;;5005722;28;21390;-80
2024/02/28 06:48:28;;;;;;;10.07;6.15;;;6.50;99.90;;;;;;5007165;28;20103;-80
2024/02/28 06:50:54;;;;;;;10.27;6.95;;;6.50;99.90;;;;;;5005499;28;20068;-80
2024/02/28 06:53:19;;;;;;;11.55;6.20;;;6.40;99.90;;;;;;5008957;28;20150;-80
2024/02/28 06:55:48;;;;;;;9.13;6.43;;;6.40;99.90;;;;;;5011854;28;20040;-80
2024/02/28 06:58:14;;;;;;;10.07;5.80;;;6.50;99.90;;;;;;5009259;28;20523;-80
2024/02/28 07:00:39;;;;;;;11.57;7.55;;;6.50;99.90;;;;;;5010467;28;20037;-80
2024/02/28 07:03:05;;;;;;;11.40;6.72;;;6.40;99.90;;;;;;5010743;28;20033;-80
2024/02/28 07:05:31;;;;;;;8.90;6.47;;;6.50;99.90;;;;;;5009321;28;20021;-80
2024/02/28 07:07:57;;;;;;;10.35;5.55;;;6.50;99.90;;;;;;5009026;28;20057;-80
2024/02/28 07:10:23;;;;;;;8.25;5.20;;;6.50;99.90;;;;;;5018918;28;20049;-78
2024/02/28 07:12:49;;;;;;;8.63;5.05;;;6.60;99.90;;;;;;5011395;28;20038;-79
2024/02/28 07:15:14;;;;;;;9.80;4.07;;;6.70;99.90;;;;;;5007021;28;20044;-80
2024/02/28 07:17:40;;;;;;;6.43;4.28;;;6.80;99.90;;;;;;5010026;28;20033;-81
2024/02/28 07:20:06;;;;;;;6.40;4.32;;;6.80;99.90;;;;;;5009673;28;20538;-79
2024/02/28 07:22:32;;;;;;;4.43;3.03;;;6.80;99.90;;;;;;5012449;28;20041;-78
2024/02/28 07:24:58;;;;;;;6.68;4.00;;;6.80;99.90;;;;;;5008183;28;20124;-78
2024/02/28 07:27:26;;;;;;;7.32;4.82;;;6.80;99.90;;;;;;5010239;28;20129;-78
2024/02/28 07:29:52;;;;;;;7.20;4.40;;;6.80;99.90;;;;;;5009787;28;20237;-78
2024/02/28 07:32:18;;;;;;;6.53;4.18;;;6.80;99.90;;;;;;5010517;28;20673;-77
2024/02/28 07:34:43;;;;;;;7.07;4.28;;;6.80;99.90;;;;;;5009590;28;20041;-76
2024/02/28 07:37:09;;;;;;;9.27;5.97;;;6.90;99.90;;;;;;5009374;28;20035;-77
2024/02/28 07:39:35;;;;;;;9.20;5.65;;;6.90;99.90;;;;;;5009232;28;20045;-77
2024/02/28 07:42:00;;;;;;;10.13;6.65;;;6.80;99.90;;;;;;5009561;28;20034;-76
2024/02/28 07:44:30;;;;;;;7.60;5.18;;;6.80;99.90;;;;;;5007475;28;20080;-77
2024/02/28 07:46:57;;;;;;;7.55;5.20;;;6.90;99.90;;;;;;5010747;28;20128;-76
2024/02/28 07:49:23;;;;;;;9.07;6.00;;;7.00;99.90;;;;;;5007546;28;20041;-76
2024/02/28 07:51:49;;;;;;;7.95;5.20;;;7.00;99.90;;;;;;5008984;28;20033;-77
2024/02/28 07:54:14;;;;;;;9.32;5.25;;;7.00;99.90;;;;;;5007658;28;20045;-77
2024/02/28 07:56:40;;;;;;;8.07;5.65;;;7.00;99.90;;;;;;5008546;28;20833;-77
2024/02/28 07:59:06;;;;;;;9.70;6.13;;;7.00;99.90;;;;;;5008837;28;20038;-77
2024/02/28 08:01:31;;;;;;;9.52;6.63;;;7.10;99.90;;;;;;5008915;28;20038;-77
2024/02/28 08:03:57;;;;;;;6.97;4.88;;;7.00;99.90;;;;;;5008847;28;20037;-79
2024/02/28 08:06:24;;;;;;;9.40;4.50;;;7.10;99.90;;;;;;5007953;28;20044;-77
2024/02/28 08:08:49;;;;;;;9.63;6.80;;;7.10;99.90;;;;;;5010261;28;20048;-78
2024/02/28 08:11:15;;;;;;;10.98;7.43;;;7.00;99.90;;;;;;5007084;28;20061;-78
2024/02/28 08:13:41;;;;;;;11.63;7.22;;;6.90;99.90;;;;;;5009312;28;20162;-78
2024/02/28 08:16:08;;;;;;;11.85;7.00;;;7.00;99.90;;;;;;5010352;28;20029;-78
2024/02/28 08:18:35;;;;;;;11.02;7.00;;;6.90;99.90;;;;;;5009164;28;20527;-78
2024/02/28 08:21:02;;;;;;;9.52;6.40;;;7.10;99.90;;;;;;5002211;28;20037;-77
2024/02/28 08:23:28;;;;;;;8.45;5.47;;;7.20;99.90;;;;;;5007425;28;20576;-78
2024/02/28 08:25:54;;;;;;;7.35;5.05;;;7.20;99.90;;;;;;5008430;28;20034;-78
2024/02/28 08:28:19;;;;;;;7.95;5.18;;;7.30;99.90;;;;;;5008363;28;20038;-78
2024/02/28 08:30:45;;;;;;;7.40;4.80;;;7.40;99.90;;;;;;5007390;28;20402;-78
2024/02/28 08:33:11;;;;;;;8.07;4.68;;;7.50;99.90;;;;;;5007031;28;20398;-78
2024/02/28 08:35:37;;;;;;;6.18;4.00;;;7.50;99.90;;;;;;5008718;28;20032;-78
2024/02/28 08:38:03;;;;;;;5.50;3.53;;;7.60;99.90;;;;;;5007751;28;20041;-77
2024/02/28 08:40:30;;;;;;;5.80;3.17;;;7.70;99.90;;;;;;5007673;28;20049;-77
2024/02/28 08:42:55;;;;;;;6.10;3.70;;;7.80;99.90;;;;;;5008342;28;20029;-77
2024/02/28 08:45:22;;;;;;;5.32;3.05;;;7.80;99.90;;;;;;5008922;28;20071;-77
2024/02/28 08:47:48;;;;;;;4.45;3.03;;;7.80;99.90;;;;;;5007721;28;20057;-77
2024/02/28 08:50:14;;;;;;;5.95;3.97;;;7.80;99.90;;;;;;5008674;28;21372;-77
2024/02/28 08:52:40;;;;;;;9.55;4.07;;;7.80;99.90;;;;;;5006215;28;20394;-77
2024/02/28 08:55:06;;;;;;;13.52;4.18;;;8.00;99.90;;;;;;5007462;28;20318;-77
2024/02/28 08:57:31;;;;;;;9.73;4.60;;;8.00;99.90;;;;;;5008402;28;20065;-77
2024/02/28 08:59:57;;;;;;;19.88;7.57;;;8.00;99.90;;;;;;5008151;28;20033;-77
2024/02/28 09:02:23;;;;;;;8.07;4.50;;;7.80;99.90;;;;;;5006088;28;20435;-77
2024/02/28 09:04:51;;;;;;;6.80;4.18;;;7.80;99.90;;;;;;5006952;28;20060;-77
2024/02/28 09:07:20;;;;;;;7.35;4.35;;;7.90;99.90;;;;;;5007144;28;20479;-77
2024/02/28 09:09:46;;;;;;;7.30;5.05;;;8.00;99.90;;;;;;5007140;28;20511;-77
2024/02/28 09:12:12;;;;;;;8.95;5.88;;;8.00;99.90;;;;;;5007946;28;20037;-77
2024/02/28 09:14:38;;;;;;;8.63;5.07;;;8.00;99.90;;;;;;5007133;28;20053;-77
2024/02/28 09:17:04;;;;;;;9.43;6.10;;;8.00;99.90;;;;;;5008211;28;20099;-77
2024/02/28 09:19:31;;;;;;;10.57;5.65;;;8.20;99.90;;;;;;5007757;28;20038;-76
2024/02/28 09:21:58;;;;;;;8.68;5.47;;;8.30;99.90;;;;;;5005875;28;20529;-76
2024/02/28 09:24:24;;;;;;;7.70;4.40;;;8.30;99.90;;;;;;5008753;28;20041;-75
2024/02/28 09:26:50;;;;;;;6.57;4.38;;;8.40;99.90;;;;;;5007920;28;21253;-75
2024/02/28 09:29:15;;;;;;;6.93;4.25;;;8.50;99.90;;;;;;5006695;28;20048;-75
2024/02/28 09:31:41;;;;;;;8.38;4.65;;;8.60;99.90;;;;;;5006605;28;20033;-75
2024/02/28 09:34:09;;;;;;;8.65;4.88;;;8.60;99.90;;;;;;5004328;28;20130;-76
2024/02/28 09:36:47;;;;;;;8.05;3.58;;;8.50;99.90;;;;;;5006528;28;20059;-76
2024/02/28 09:39:14;;;;;;;6.03;3.80;;;8.70;99.90;;;;;;4992935;28;20124;-76
2024/02/28 09:41:41;;;;;;;5.13;2.70;;;8.60;99.90;;;;;;5009135;28;20083;-76
2024/02/28 09:44:07;;;;;;;4.97;2.63;;;8.70;99.90;;;;;;5009551;28;20047;-76
2024/02/28 09:46:36;;;;;;;3.70;2.22;;;8.70;99.90;;;;;;5009560;28;20075;-77
2024/02/28 09:49:05;;;;;;;4.25;2.00;;;8.70;99.90;;;;;;5011424;28;20049;-76
2024/02/28 09:51:35;;;;;;;5.80;3.22;;;8.90;99.90;;;;;;5008029;28;20025;-76
2024/02/28 09:54:04;;;;;;;6.57;3.22;;;9.10;99.90;;;;;;5010219;28;20049;-76
2024/02/28 09:56:31;;;;;;;4.22;2.20;;;9.30;99.90;;;;;;5010572;28;20510;-77
2024/02/28 09:58:58;;;;;;;6.00;2.60;;;9.10;99.90;;;;;;5010909;28;20065;-77
2024/02/28 10:01:26;;;;;;;4.60;2.40;;;9.20;99.90;;;;;;5008078;28;20728;-76
2024/02/28 10:03:53;;;;;;;4.97;2.22;;;9.30;99.90;;;;;;5009786;28;20045;-76
2024/02/28 10:06:22;;;;;;;3.08;1.60;;;9.60;99.90;;;;;;5010537;28;20042;-77
2024/02/28 10:08:48;;;;;;;5.57;2.97;;;9.60;99.90;;;;;;5011442;28;20065;-76
2024/02/28 10:11:21;;;;;;;6.45;3.88;;;9.60;99.90;;;;;;5009685;28;20068;-77
2024/02/28 10:13:52;;;;;;;4.78;2.00;;;9.60;99.90;;;;;;5010957;28;20056;-76
2024/02/28 10:16:18;;;;;;;4.32;2.35;;;9.40;99.90;;;;;;5011937;28;20096;-76
2024/02/28 10:18:45;;;;;;;3.53;1.90;;;9.50;99.90;;;;;;5010711;28;20664;-75
2024/02/28 10:21:13;;;;;;;4.00;1.73;;;9.50;99.90;;;;;;5009708;28;20058;-75
2024/02/28 10:23:39;;;;;;;4.93;2.50;;;9.40;99.90;;;;;;5011227;28;21205;-75
2024/02/28 10:26:08;;;;;;;4.35;1.85;;;9.40;99.90;;;;;;5014147;28;21309;-75
2024/02/28 10:28:37;;;;;;;8.40;4.10;;;9.40;99.90;;;;;;5015945;28;20057;-75
2024/02/28 10:31:04;;;;;;;7.90;3.80;;;9.50;99.90;;;;;;5016619;28;20944;-75
2024/02/28 10:33:33;;;;;;;8.00;4.55;;;9.50;99.90;;;;;;5016681;28;20075;-75
2024/02/28 10:35:59;;;;;;;6.30;3.63;;;9.60;99.90;;;;;;5017537;28;20033;-75
2024/02/28 10:38:27;;;;;;;4.60;2.13;;;9.60;99.90;;;;;;5015455;28;20041;-75
2024/02/28 10:40:56;;;;;;;3.50;1.50;;;9.60;99.90;;;;;;5012607;28;20056;-75
2024/02/28 10:43:23;;;;;;;7.40;3.75;;;9.60;99.90;;;;;;5011834;28;20030;-75
2024/02/28 10:45:49;;;;;;;62.85;39.67;;;9.80;99.90;;;;;;5013952;28;20112;-78
2024/02/28 10:48:16;;;;;;;75.05;45.38;;;9.80;99.90;;;;;;5013295;28;21046;-77
2024/02/28 10:50:44;;;;;;;40.45;25.75;;;9.80;99.90;;;;;;5010487;28;20060;-77
2024/02/28 10:53:14;;;;;;;55.65;30.73;;;9.60;99.90;;;;;;5012053;28;20048;-78
2024/02/28 10:55:41;;;;;;;80.50;40.30;;;9.60;99.90;;;;;;5013436;28;20037;-76
2024/02/28 10:58:10;;;;;;;34.50;21.55;;;9.60;99.90;;;;;;5012662;28;20092;-77
2024/02/28 11:00:46;;;;;;;18.58;13.18;;;9.60;99.90;;;;;;5012258;28;20062;-78
2024/02/28 11:03:17;;;;;;;10.48;5.55;;;9.60;99.90;;;;;;5014424;28;20065;-75
2024/02/28 11:05:46;;;;;;;6.03;3.28;;;9.40;99.90;;;;;;5010808;28;21128;-76
2024/02/28 11:08:22;;;;;;;5.35;2.90;;;9.50;99.90;;;;;;5011703;28;20125;-78
2024/02/28 11:10:57;;;;;;;5.57;3.30;;;9.60;99.90;;;;;;5012111;28;20052;-78
2024/02/28 11:13:24;;;;;;;10.15;6.13;;;9.70;99.90;;;;;;5011495;28;20053;-78
2024/02/28 11:15:50;;;;;;;9.52;5.13;;;9.80;99.90;;;;;;5012483;28;20678;-76
2024/02/28 11:18:17;;;;;;;11.32;5.47;;;9.90;99.90;;;;;;5010996;28;20037;-78
2024/02/28 11:20:46;;;;;;;13.25;7.43;;;9.90;99.90;;;;;;5011244;28;20116;-78
2024/02/28 11:23:11;;;;;;;12.68;7.47;;;9.90;99.90;;;;;;5012402;28;20038;-78
2024/02/28 11:25:38;;;;;;;17.73;8.15;;;9.90;99.90;;;;;;5011984;28;20072;-78
2024/02/28 11:28:04;;;;;;;18.15;11.02;;;9.90;99.90;;;;;;5012030;28;20026;-78
2024/02/28 11:30:31;;;;;;;12.65;7.88;;;9.80;99.90;;;;;;5012702;28;20073;-77
2024/02/28 11:32:58;;;;;;;12.40;8.05;;;9.90;99.90;;;;;;5010309;28;20037;-76
2024/02/28 11:35:31;;;;;;;16.55;11.93;;;9.70;99.90;;;;;;5011851;28;20026;-78
2024/02/28 11:37:57;;;;;;;10.77;8.02;;;9.70;99.90;;;;;;5010910;28;20040;-76
2024/02/28 11:40:26;;;;;;;13.52;8.38;;;9.60;99.90;;;;;;5012823;28;20044;-78
2024/02/28 11:42:56;;;;;;;10.23;6.55;;;9.50;99.90;;;;;;5012018;28;20118;-78
2024/02/28 11:45:22;;;;;;;10.80;7.18;;;9.40;99.90;;;;;;5012986;28;20510;-77
2024/02/28 11:47:47;;;;;;;13.20;8.20;;;9.40;99.90;;;;;;5010711;28;20045;-77
2024/02/28 11:50:18;;;;;;;11.27;7.07;;;9.40;99.90;;;;;;5009931;28;20064;-77
2024/02/28 11:52:44;;;;;;;11.15;6.78;;;9.40;99.90;;;;;;5012347;28;20036;-77
2024/02/28 11:55:09;;;;;;;13.27;7.30;;;9.50;99.90;;;;;;5011475;28;20101;-78
2024/02/28 11:57:36;;;;;;;11.23;6.97;;;9.40;99.90;;;;;;5010890;28;20359;-78
2024/02/28 12:00:14;;;;;;;10.60;6.95;;;9.40;99.90;;;;;;5012916;28;20048;-78
2024/02/28 12:02:40;;;;;;;11.43;7.13;;;9.50;99.90;;;;;;5011313;28;20037;-78
2024/02/28 12:05:06;;;;;;;10.27;6.22;;;9.60;99.90;;;;;;5008374;28;20044;-77
2024/02/28 12:07:32;;;;;;;10.30;7.22;;;9.60;99.90;;;;;;5011075;28;20167;-78
2024/02/28 12:09:59;;;;;;;11.93;7.00;;;9.70;99.90;;;;;;5011449;28;20034;-77
2024/02/28 12:12:26;;;;;;;11.23;7.70;;;9.90;99.90;;;;;;5009093;28;20107;-77
2024/02/28 12:14:52;;;;;;;10.20;7.65;;;10.00;99.90;;;;;;5011293;28;20045;-77
2024/02/28 12:17:18;;;;;;;11.50;6.82;;;10.10;99.90;;;;;;5012171;28;20080;-78
2024/02/28 12:19:44;;;;;;;9.23;6.18;;;10.20;99.90;;;;;;5008796;28;20534;-77
2024/02/28 12:22:10;;;;;;;7.60;5.18;;;10.10;99.90;;;;;;5010060;28;20030;-78
2024/02/28 12:24:36;;;;;;;9.35;6.22;;;10.20;99.90;;;;;;5010466;28;20042;-77
2024/02/28 12:27:02;;;;;;;16.45;10.48;;;10.40;99.90;;;;;;5009447;28;20072;-74
2024/02/28 12:29:27;;;;;;;29.80;21.73;;;10.40;99.90;;;;;;5011690;28;20029;-74
2024/02/28 12:31:53;;;;;;;16.77;11.63;;;10.40;99.90;;;;;;5010883;28;20044;-76
2024/02/28 12:34:19;;;;;;;13.75;10.30;;;10.50;99.90;;;;;;5010193;28;20045;-75
2024/02/28 12:36:45;;;;;;;11.27;7.47;;;10.40;99.90;;;;;;5008584;28;20036;-77
2024/02/28 12:39:11;;;;;;;9.68;6.32;;;10.40;99.90;;;;;;5008189;28;20048;-75
2024/02/28 12:41:38;;;;;;;9.02;5.78;;;10.20;99.90;;;;;;5006420;28;20056;-76
2024/02/28 12:44:05;;;;;;;9.10;5.35;;;10.20;99.90;;;;;;5008559;28;20037;-75
2024/02/28 12:46:31;;;;;;;7.47;4.72;;;10.20;99.90;;;;;;5007467;28;20053;-75
2024/02/28 12:48:57;;;;;;;10.85;5.70;;;10.30;99.90;;;;;;5007145;28;20125;-74